Pottsboro, Texas
Current Conditions -  °F | °C
As of 6:35 PM on Sunday 21 Dec 2014 (Local Time) from KGYI Reporting Station
Overcast Overcast  
Wind Chill:   Ceiling: 2600
Heat Index:   Visibility: 7mi
Dew Point:   Wind: 15mph
Humidity: 96%   Direction: 140°SE
Pressure: 29.82"   Gusts: 18mph
Location:  33.76°N, 96.67°W
Report Text: KGYI 220035Z AUTO 14013G16KT 7SM SCT008 OVC026 09/09 A2982 RMK AO2 T00920086
Loading
Personal Weather Stations






























Interactive Weather Map New forecast layout! Learn more

10-Day Weather Forecast

Advertisements
Track Severe Weather on mobile